createdAt,value
2022-09-23T00:01:20.795Z,11.85
2022-09-23T00:03:49.276Z,11.60
2022-09-23T00:06:19.559Z,14.05
2022-09-23T00:08:49.700Z,13.82
2022-09-23T00:11:19.931Z,17.65
2022-09-23T00:13:49.036Z,16.73
2022-09-23T00:16:23.199Z,16.75
2022-09-23T00:18:50.963Z,16.30
2022-09-23T00:21:20.177Z,15.60
2022-09-23T00:23:47.451Z,16.20
2022-09-23T00:26:17.006Z,16.95
2022-09-23T00:28:44.219Z,16.40
2022-09-23T00:31:15.316Z,17.00
2022-09-23T00:33:43.115Z,18.67
2022-09-23T00:36:16.307Z,16.92
2022-09-23T00:38:44.682Z,18.15
2022-09-23T00:41:16.269Z,17.33
2022-09-23T00:43:48.097Z,18.08
2022-09-23T00:46:20.518Z,15.77
2022-09-23T00:48:50.988Z,17.45
2022-09-23T00:51:23.361Z,17.98
2022-09-23T00:53:52.410Z,17.70
2022-09-23T00:56:23.024Z,16.90
2022-09-23T00:58:51.754Z,18.95
2022-09-23T01:01:19.952Z,15.85
2022-09-23T01:03:47.802Z,17.23
2022-09-23T01:06:15.330Z,14.30
2022-09-23T01:08:46.234Z,14.77
2022-09-23T01:11:31.104Z,15.45
2022-09-23T01:14:34.548Z,14.77
2022-09-23T01:17:14.231Z,14.13
2022-09-23T01:20:03.450Z,14.07
2022-09-23T01:22:49.715Z,14.52
2022-09-23T01:25:32.087Z,12.57
2022-09-23T01:28:20.375Z,12.55
2022-09-23T01:31:15.275Z,11.88
2022-09-23T01:34:12.873Z,11.85
2022-09-23T01:36:47.818Z,12.02
2022-09-23T01:39:41.203Z,12.05
2022-09-23T01:45:00.355Z,12.57
2022-09-23T01:47:35.693Z,12.63
2022-09-23T01:50:28.974Z,11.68
2022-09-23T01:53:02.584Z,12.50
2022-09-23T01:55:35.064Z,11.90
2022-09-23T01:58:48.569Z,11.65
2022-09-23T02:01:21.644Z,12.30
2022-09-23T02:03:57.004Z,12.55
2022-09-23T02:06:30.207Z,11.38
2022-09-23T02:09:05.059Z,12.55
2022-09-23T02:11:36.477Z,13.98
2022-09-23T02:14:15.603Z,13.43
2022-09-23T02:16:47.629Z,13.27
2022-09-23T02:19:41.245Z,14.25
2022-09-23T02:24:39.823Z,13.45
2022-09-23T02:27:26.042Z,13.48
2022-09-23T02:30:28.615Z,12.55
2022-09-23T02:33:04.741Z,13.20
2022-09-23T02:35:41.305Z,13.00
2022-09-23T02:38:17.156Z,13.50
2022-09-23T02:40:58.863Z,13.15
2022-09-23T02:43:33.953Z,13.23
2022-09-23T02:46:03.449Z,13.07
2022-09-23T02:48:48.697Z,12.35
2022-09-23T02:51:16.332Z,13.70
2022-09-23T02:53:43.958Z,13.85
2022-09-23T02:56:20.345Z,12.63
2022-09-23T02:58:53.941Z,13.68
2022-09-23T03:01:53.043Z,10.73
2022-09-23T03:04:53.627Z,14.23
2022-09-23T03:07:33.486Z,14.32
2022-09-23T03:10:28.650Z,14.32
2022-09-23T03:13:19.646Z,14.70
2022-09-23T03:16:10.237Z,15.15
2022-09-23T03:18:51.902Z,14.00
2022-09-23T03:21:49.447Z,15.50
2022-09-23T03:24:19.342Z,14.85
2022-09-23T03:26:47.965Z,16.27
2022-09-23T03:29:17.048Z,14.32
2022-09-23T03:31:44.957Z,14.98
2022-09-23T03:34:21.504Z,17.20
2022-09-23T03:37:07.623Z,18.58
2022-09-23T03:39:44.627Z,18.92
2022-09-23T03:42:18.518Z,18.58
2022-09-23T03:44:47.672Z,18.23
2022-09-23T03:47:16.602Z,16.90
2022-09-23T03:49:48.522Z,12.80
2022-09-23T03:52:17.773Z,15.60
2022-09-23T03:54:44.902Z,14.07
2022-09-23T03:57:13.504Z,10.55
2022-09-23T03:59:41.214Z,9.85
2022-09-23T04:02:08.675Z,11.35
2022-09-23T04:04:37.677Z,9.70
2022-09-23T04:07:04.951Z,9.07
2022-09-23T04:09:32.380Z,9.75
2022-09-23T04:11:59.693Z,9.13
2022-09-23T04:14:27.203Z,8.48
2022-09-23T04:16:54.460Z,8.05
2022-09-23T04:19:21.577Z,7.20
2022-09-23T04:21:49.491Z,7.32
2022-09-23T04:24:16.976Z,6.60
2022-09-23T04:26:44.325Z,6.68
2022-09-23T04:29:12.109Z,6.93
2022-09-23T04:31:39.943Z,6.72
2022-09-23T04:34:07.186Z,6.70
2022-09-23T04:36:34.509Z,6.05
2022-09-23T04:39:07.500Z,6.10
2022-09-23T04:41:34.742Z,5.55
2022-09-23T04:44:04.504Z,6.40
2022-09-23T04:46:32.690Z,5.60
2022-09-23T04:49:00.128Z,7.20
2022-09-23T04:51:27.942Z,6.68
2022-09-23T04:53:55.924Z,6.57
2022-09-23T04:56:25.743Z,6.45
2022-09-23T04:58:57.378Z,6.10
2022-09-23T05:01:31.104Z,7.20
2022-09-23T05:04:02.632Z,6.68
2022-09-23T05:06:31.795Z,6.07
2022-09-23T05:09:00.712Z,6.13
2022-09-23T05:11:30.466Z,6.32
2022-09-23T05:13:58.339Z,5.50
2022-09-23T05:16:26.962Z,5.90
2022-09-23T05:18:54.630Z,6.00
2022-09-23T05:21:24.606Z,5.95
2022-09-23T05:23:54.535Z,6.05
2022-09-23T05:26:25.531Z,6.18
2022-09-23T05:28:54.074Z,5.50
2022-09-23T05:31:24.211Z,5.63
2022-09-23T05:34:00.450Z,6.80
2022-09-23T05:36:33.063Z,6.53
2022-09-23T05:39:03.969Z,7.20
2022-09-23T05:41:31.339Z,7.20
2022-09-23T05:43:59.854Z,6.28
2022-09-23T05:46:29.569Z,7.00
2022-09-23T05:49:02.124Z,7.00
2022-09-23T05:51:31.407Z,7.05
2022-09-23T05:53:59.940Z,6.50
2022-09-23T05:56:28.729Z,6.90
2022-09-23T05:58:58.995Z,6.57
2022-09-23T06:01:28.400Z,6.50
2022-09-23T06:03:58.059Z,6.72
2022-09-23T06:06:42.749Z,7.05
2022-09-23T06:09:14.597Z,8.50
2022-09-23T06:11:42.569Z,7.37
2022-09-23T06:14:12.542Z,7.32
2022-09-23T06:16:39.941Z,8.73
2022-09-23T06:19:07.313Z,7.95
2022-09-23T06:21:38.077Z,7.13
2022-09-23T06:24:06.843Z,7.20
2022-09-23T06:26:35.657Z,5.15
2022-09-23T06:29:04.793Z,6.47
2022-09-23T06:31:33.127Z,5.57
2022-09-23T06:34:10.800Z,6.13
2022-09-23T06:36:44.541Z,6.10
2022-09-23T06:39:16.501Z,6.00
2022-09-23T06:41:45.503Z,6.00
2022-09-23T06:44:14.230Z,5.47
2022-09-23T06:46:41.738Z,4.93
2022-09-23T06:49:09.302Z,4.90
2022-09-23T06:51:36.805Z,4.75
2022-09-23T06:54:04.222Z,5.85
2022-09-23T06:56:34.835Z,5.68
2022-09-23T06:59:05.425Z,4.88
2022-09-23T07:01:33.651Z,6.10
2022-09-23T07:04:01.905Z,6.10
2022-09-23T07:06:29.111Z,5.93
2022-09-23T07:08:56.260Z,5.82
2022-09-23T07:11:23.495Z,5.80
2022-09-23T07:13:50.800Z,5.68
2022-09-23T07:16:18.366Z,4.95
2022-09-23T07:18:45.869Z,4.78
2022-09-23T07:21:18.380Z,4.90
2022-09-23T07:23:48.182Z,5.30
2022-09-23T07:26:16.688Z,5.65
2022-09-23T07:28:43.936Z,5.95
2022-09-23T07:31:14.044Z,5.93
2022-09-23T07:33:44.292Z,5.70
2022-09-23T07:36:14.576Z,5.75
2022-09-23T07:38:45.504Z,6.32
2022-09-23T07:41:15.890Z,6.03
2022-09-23T07:43:44.232Z,6.85
2022-09-23T07:46:16.459Z,6.45
2022-09-23T07:48:45.983Z,6.82
2022-09-23T07:51:17.997Z,5.50
2022-09-23T07:53:50.747Z,5.57
2022-09-23T07:56:19.528Z,5.60
2022-09-23T07:59:00.250Z,5.90
2022-09-23T08:01:32.096Z,5.55
2022-09-23T08:04:02.419Z,5.05
2022-09-23T08:06:30.071Z,5.10
2022-09-23T08:08:58.872Z,4.88
2022-09-23T08:11:27.741Z,4.63
2022-09-23T08:13:55.081Z,4.32
2022-09-23T08:16:22.266Z,4.88
2022-09-23T08:18:49.989Z,4.90
2022-09-23T08:21:21.838Z,4.72
2022-09-23T08:23:49.365Z,4.88
2022-09-23T08:26:21.710Z,4.93
2022-09-23T08:31:17.440Z,4.32
2022-09-23T08:33:44.912Z,4.57
2022-09-23T08:36:12.396Z,4.82
2022-09-23T08:38:39.610Z,4.50
2022-09-23T08:41:27.719Z,5.38
2022-09-23T08:44:26.776Z,4.63
2022-09-23T08:47:25.054Z,4.53
2022-09-23T08:50:09.134Z,4.07
2022-09-23T08:52:49.096Z,3.78
2022-09-23T08:55:17.608Z,4.78
2022-09-23T08:58:23.967Z,6.20
2022-09-23T09:01:03.564Z,6.50
2022-09-23T09:03:37.159Z,6.70
2022-09-23T09:06:04.390Z,6.20
2022-09-23T09:08:35.396Z,5.32
2022-09-23T09:11:03.426Z,6.10
2022-09-23T09:13:50.748Z,4.90
2022-09-23T09:16:42.103Z,4.07
2022-09-23T09:19:22.402Z,4.68
2022-09-23T09:21:54.011Z,4.95
2022-09-23T09:24:44.490Z,5.30
2022-09-23T09:27:13.428Z,4.60
2022-09-23T09:29:49.980Z,4.07
2022-09-23T09:32:23.074Z,4.30
2022-09-23T09:37:27.851Z,3.50
2022-09-23T09:39:56.393Z,2.88
2022-09-23T09:42:30.833Z,2.90
2022-09-23T09:45:01.903Z,3.58
2022-09-23T09:50:45.731Z,2.70
2022-09-23T09:53:15.579Z,3.05
2022-09-23T09:55:43.180Z,3.50
2022-09-23T09:58:16.495Z,2.90
2022-09-23T10:00:46.140Z,3.50
2022-09-23T10:03:13.495Z,3.20
2022-09-23T10:05:48.422Z,3.58
2022-09-23T10:08:35.085Z,3.63
2022-09-23T10:11:02.283Z,3.80
2022-09-23T10:13:30.334Z,3.30
2022-09-23T10:15:59.976Z,3.55
2022-09-23T10:18:47.427Z,3.20
2022-09-23T10:21:17.838Z,3.10
2022-09-23T10:23:47.774Z,3.20
2022-09-23T10:26:18.580Z,2.45
2022-09-23T10:28:52.374Z,2.60
2022-09-23T10:31:29.339Z,3.28
2022-09-23T10:34:20.924Z,2.83
2022-09-23T10:37:24.560Z,3.03
2022-09-23T10:40:10.221Z,2.53
2022-09-23T10:42:56.465Z,2.50
2022-09-23T10:45:51.174Z,2.88
2022-09-23T10:48:40.865Z,2.47
2022-09-23T10:51:29.489Z,2.88
2022-09-23T10:54:00.147Z,2.63
2022-09-23T10:56:33.648Z,3.40
2022-09-23T10:59:00.775Z,3.38
2022-09-23T11:01:52.763Z,3.67
2022-09-23T11:04:43.633Z,3.47
2022-09-23T11:07:20.823Z,3.83
2022-09-23T11:10:00.937Z,4.53
2022-09-23T11:12:40.100Z,4.18
2022-09-23T11:15:23.369Z,3.92
2022-09-23T11:18:06.267Z,4.93
2022-09-23T11:20:33.414Z,4.25
2022-09-23T11:23:00.563Z,4.72
2022-09-23T11:25:33.201Z,4.95
2022-09-23T11:28:18.288Z,4.75
2022-09-23T11:30:51.587Z,5.30
2022-09-23T11:33:38.619Z,5.22
2022-09-23T11:36:11.316Z,4.60
2022-09-23T11:38:43.923Z,5.22
2022-09-23T11:41:20.049Z,4.13
2022-09-23T11:43:53.098Z,5.10
2022-09-23T11:46:43.048Z,4.60
2022-09-23T11:49:17.106Z,4.70
2022-09-23T11:52:05.608Z,4.97
2022-09-23T11:54:46.795Z,4.40
2022-09-23T11:57:25.726Z,4.25
2022-09-23T12:00:00.255Z,4.50
2022-09-23T12:02:56.442Z,4.57
2022-09-23T12:05:31.787Z,4.30
2022-09-23T12:08:06.591Z,4.15
2022-09-23T12:11:14.128Z,4.20
2022-09-23T12:14:05.193Z,3.95
2022-09-23T12:16:38.474Z,3.80
2022-09-23T12:19:24.228Z,3.90
2022-09-23T12:22:19.393Z,4.38
2022-09-23T12:25:23.567Z,3.20
2022-09-23T12:27:55.356Z,3.70
2022-09-23T12:30:28.620Z,3.38
2022-09-23T12:33:24.914Z,4.10
2022-09-23T12:36:02.873Z,4.40
2022-09-23T12:38:48.543Z,3.67
2022-09-23T12:41:24.707Z,3.97
2022-09-23T12:44:00.070Z,3.63
2022-09-23T12:46:27.897Z,3.97
2022-09-23T12:48:58.195Z,3.85
2022-09-23T12:51:36.074Z,4.20
2022-09-23T12:54:07.529Z,3.90
2022-09-23T12:56:34.680Z,3.55
2022-09-23T12:59:11.536Z,3.50
2022-09-23T13:01:39.319Z,4.82
2022-09-23T13:04:25.081Z,4.07
2022-09-23T13:07:06.487Z,4.40
2022-09-23T13:09:41.248Z,4.75
2022-09-23T13:12:25.239Z,4.20
2022-09-23T13:14:55.953Z,4.65
2022-09-23T13:17:39.745Z,4.20
2022-09-23T13:20:36.662Z,4.90
2022-09-23T13:23:16.132Z,4.10
2022-09-23T13:25:44.192Z,4.55
2022-09-23T13:28:26.305Z,4.68
2022-09-23T13:30:53.832Z,4.10
2022-09-23T13:33:46.245Z,4.40
2022-09-23T13:36:16.242Z,4.65
2022-09-23T13:38:43.707Z,4.53
2022-09-23T13:41:15.571Z,4.03
2022-09-23T13:44:00.736Z,4.38
2022-09-23T13:46:32.700Z,4.57
2022-09-23T13:48:59.954Z,4.72
2022-09-23T13:51:30.479Z,4.68
2022-09-23T13:54:00.331Z,5.07
2022-09-23T13:56:31.963Z,4.47
2022-09-23T13:59:20.724Z,5.20
2022-09-23T14:01:47.943Z,4.60
2022-09-23T14:04:26.759Z,5.22
2022-09-23T14:06:54.713Z,5.30
2022-09-23T14:09:27.494Z,5.65
2022-09-23T14:11:58.128Z,5.68
2022-09-23T14:14:27.254Z,6.05
2022-09-23T14:16:56.209Z,5.82
2022-09-23T14:19:25.846Z,5.88
2022-09-23T14:21:54.931Z,5.20
2022-09-23T14:24:25.402Z,5.68
2022-09-23T14:26:54.893Z,6.05
2022-09-23T14:29:28.588Z,4.95
2022-09-23T14:32:00.385Z,4.70
2022-09-23T14:35:07.846Z,5.40
2022-09-23T14:37:56.423Z,5.38
2022-09-23T14:40:36.141Z,5.97
2022-09-23T14:43:22.880Z,5.28
2022-09-23T14:45:55.930Z,5.65
2022-09-23T14:48:35.881Z,5.10
2022-09-23T14:51:06.947Z,5.07
2022-09-23T14:53:46.488Z,5.05
2022-09-23T14:56:22.163Z,5.90
2022-09-23T14:58:52.389Z,5.60
2022-09-23T15:01:32.596Z,5.65
2022-09-23T15:04:10.332Z,5.70
2022-09-23T15:06:40.086Z,5.78
2022-09-23T15:09:07.521Z,5.15
2022-09-23T15:11:36.141Z,4.95
2022-09-23T15:14:32.966Z,4.38
2022-09-23T15:16:53.697Z,5.28
2022-09-23T15:19:22.142Z,5.13
2022-09-23T15:21:54.447Z,4.80
2022-09-23T15:24:41.222Z,5.10
2022-09-23T15:27:27.558Z,5.30
2022-09-23T15:29:55.093Z,5.78
2022-09-23T15:32:22.369Z,5.25
2022-09-23T15:34:50.741Z,5.68
2022-09-23T15:37:17.937Z,5.25
2022-09-23T15:39:45.298Z,5.30
2022-09-23T15:42:12.426Z,5.82
2022-09-23T15:44:39.696Z,5.43
2022-09-23T15:47:15.760Z,5.57
2022-09-23T15:49:47.492Z,5.35
2022-09-23T15:52:16.043Z,5.40
2022-09-23T15:54:43.954Z,5.60
2022-09-23T15:57:11.329Z,5.25
2022-09-23T15:59:38.568Z,4.65
2022-09-23T16:02:21.314Z,5.25
2022-09-23T16:04:53.772Z,5.15
2022-09-23T16:07:24.570Z,6.38
2022-09-23T16:09:51.974Z,5.40
2022-09-23T16:12:20.633Z,6.03
2022-09-23T16:14:47.763Z,5.60
2022-09-23T16:17:15.073Z,5.10
2022-09-23T16:19:42.192Z,6.13
2022-09-23T16:22:25.453Z,4.97
2022-09-23T16:24:52.738Z,5.57
2022-09-23T16:27:25.108Z,5.43
2022-09-23T16:29:52.234Z,5.60
2022-09-23T16:32:22.225Z,6.00
2022-09-23T16:34:52.753Z,5.47
2022-09-23T16:37:21.454Z,6.00
2022-09-23T16:39:49.932Z,5.82
2022-09-23T16:42:17.196Z,5.40
2022-09-23T16:44:44.369Z,4.78
2022-09-23T16:47:11.701Z,5.25
2022-09-23T16:49:39.046Z,5.20
2022-09-23T16:52:11.661Z,5.15
2022-09-23T16:54:38.985Z,4.80
2022-09-23T16:57:06.147Z,4.57
2022-09-23T16:59:53.274Z,5.18
2022-09-23T17:02:42.129Z,5.68
2022-09-23T17:05:16.394Z,4.25
2022-09-23T17:07:45.160Z,4.72
2022-09-23T17:10:12.588Z,4.80
2022-09-23T17:12:39.794Z,4.75
2022-09-23T17:15:07.736Z,4.47
2022-09-23T17:17:37.632Z,5.25
2022-09-23T17:20:08.667Z,4.43
2022-09-23T17:22:35.842Z,5.45
2022-09-23T17:25:04.048Z,4.55
2022-09-23T17:27:32.167Z,4.85
2022-09-23T17:30:01.771Z,5.10
2022-09-23T17:32:33.574Z,4.85
2022-09-23T17:35:04.671Z,4.85
2022-09-23T17:37:33.358Z,4.15
2022-09-23T17:40:02.448Z,5.00
2022-09-23T17:42:31.195Z,5.28
2022-09-23T17:45:02.348Z,5.45
2022-09-23T17:47:39.458Z,5.50
2022-09-23T17:50:08.917Z,5.32
2022-09-23T17:52:36.140Z,5.97
2022-09-23T17:55:06.348Z,5.38
2022-09-23T17:57:33.488Z,5.47
2022-09-23T18:00:00.808Z,5.93
2022-09-23T18:02:30.153Z,5.57
2022-09-23T18:04:57.409Z,5.80
2022-09-23T18:07:26.357Z,5.00
2022-09-23T18:09:53.593Z,5.10
2022-09-23T18:12:20.872Z,5.40
2022-09-23T18:14:48.798Z,4.95
2022-09-23T18:17:17.529Z,4.78
2022-09-23T18:19:49.276Z,5.63
2022-09-23T18:22:16.402Z,6.60
2022-09-23T18:24:46.252Z,5.78
2022-09-23T18:27:16.374Z,7.50
2022-09-23T18:29:43.819Z,5.68
2022-09-23T18:32:14.666Z,5.60
2022-09-23T18:34:45.001Z,5.72
2022-09-23T18:37:15.977Z,5.78
2022-09-23T18:39:44.610Z,5.70
2022-09-23T18:42:12.516Z,5.90
2022-09-23T18:44:40.853Z,5.40
2022-09-23T18:47:08.051Z,5.53
2022-09-23T18:49:53.653Z,5.88
2022-09-23T18:52:21.190Z,5.38
2022-09-23T18:54:50.769Z,4.97
2022-09-23T18:57:21.458Z,5.25
2022-09-23T18:59:48.571Z,5.40
2022-09-23T19:02:18.500Z,5.75
2022-09-23T19:04:45.830Z,5.60
2022-09-23T19:07:12.981Z,4.80
2022-09-23T19:09:40.288Z,5.28
2022-09-23T19:12:12.898Z,4.68
2022-09-23T19:14:41.289Z,5.13
2022-09-23T19:17:08.903Z,5.38
2022-09-23T19:19:36.001Z,5.95
2022-09-23T19:22:08.255Z,4.63
2022-09-23T19:24:35.432Z,5.60
2022-09-23T19:27:06.413Z,5.35
2022-09-23T19:29:36.761Z,5.40
2022-09-23T19:32:04.066Z,5.82
2022-09-23T19:34:31.576Z,5.40
2022-09-23T19:36:58.796Z,6.10
2022-09-23T19:39:31.242Z,5.57
2022-09-23T19:41:59.041Z,4.95
2022-09-23T19:44:27.560Z,5.70
2022-09-23T19:46:56.733Z,5.30
2022-09-23T19:49:25.803Z,5.97
2022-09-23T19:51:56.952Z,5.82
2022-09-23T19:54:26.737Z,5.40
2022-09-23T19:56:54.033Z,5.40
2022-09-23T19:59:21.113Z,5.63
2022-09-23T20:01:48.795Z,5.68
2022-09-23T20:04:17.025Z,5.57
2022-09-23T20:06:46.069Z,6.13
2022-09-23T20:09:16.173Z,5.80
2022-09-23T20:11:44.345Z,6.82
2022-09-23T20:14:12.036Z,5.97
2022-09-23T20:16:39.451Z,5.90
2022-09-23T20:19:06.882Z,6.45
2022-09-23T20:21:35.515Z,5.65
2022-09-23T20:24:07.803Z,6.15
2022-09-23T20:26:53.811Z,5.88
2022-09-23T20:29:20.981Z,6.53
2022-09-23T20:31:51.193Z,6.00
2022-09-23T20:34:19.674Z,6.22
2022-09-23T20:36:46.917Z,6.25
2022-09-23T20:39:14.161Z,6.25
2022-09-23T20:41:41.523Z,6.32
2022-09-23T20:44:14.200Z,6.18
2022-09-23T20:49:16.383Z,6.10
2022-09-23T20:51:43.531Z,6.28
2022-09-23T20:54:12.345Z,6.38
2022-09-23T20:56:39.769Z,6.35
2022-09-23T20:59:14.937Z,5.90
2022-09-23T21:01:42.901Z,6.00
2022-09-23T21:04:13.066Z,5.80
2022-09-23T21:06:43.630Z,6.25
2022-09-23T21:09:11.001Z,6.15
2022-09-23T21:11:38.313Z,5.90
2022-09-23T21:14:05.920Z,6.05
2022-09-23T21:16:33.586Z,5.78
2022-09-23T21:19:03.954Z,6.50
2022-09-23T21:21:31.285Z,6.20
2022-09-23T21:24:17.238Z,7.32
2022-09-23T21:26:49.751Z,5.75
2022-09-23T21:29:17.255Z,7.03
2022-09-23T21:31:47.296Z,7.15
2022-09-23T21:34:14.849Z,6.45
2022-09-23T21:36:46.640Z,6.68
2022-09-23T21:39:14.586Z,7.25
2022-09-23T21:41:45.340Z,7.30
2022-09-23T21:44:14.029Z,7.35
2022-09-23T21:46:41.508Z,7.22
2022-09-23T21:49:11.375Z,7.03
2022-09-23T21:51:41.382Z,7.45
2022-09-23T21:54:16.145Z,8.52
2022-09-23T21:56:44.728Z,7.28
2022-09-23T21:59:12.172Z,7.30
2022-09-23T22:01:43.726Z,7.50
2022-09-23T22:04:17.218Z,7.93
2022-09-23T22:06:45.699Z,7.35
2022-09-23T22:09:15.182Z,7.63
2022-09-23T22:12:01.119Z,7.75
2022-09-23T22:14:29.702Z,7.72
2022-09-23T22:17:00.527Z,7.72
2022-09-23T22:19:35.484Z,6.60
2022-09-23T22:22:13.522Z,8.07
2022-09-23T22:24:45.089Z,7.35
2022-09-23T22:27:14.150Z,8.13
2022-09-23T22:30:00.245Z,7.25
2022-09-23T22:32:43.763Z,7.80
2022-09-23T22:35:19.421Z,6.93
2022-09-23T22:37:47.392Z,7.82
2022-09-23T22:40:16.167Z,7.70
2022-09-23T22:42:43.735Z,7.10
2022-09-23T22:45:12.119Z,7.43
2022-09-23T22:47:40.978Z,6.07
2022-09-23T22:50:09.413Z,7.22
2022-09-23T22:52:37.534Z,6.95
2022-09-23T22:55:06.829Z,6.32
2022-09-23T22:57:34.391Z,7.15
2022-09-23T23:00:01.891Z,6.85
2022-09-23T23:02:31.561Z,6.95
2022-09-23T23:05:00.534Z,6.82
2022-09-23T23:07:27.719Z,6.97
2022-09-23T23:09:54.867Z,6.38
2022-09-23T23:12:22.125Z,6.53
2022-09-23T23:14:49.712Z,6.40
2022-09-23T23:17:17.684Z,6.63
2022-09-23T23:19:45.194Z,6.22
2022-09-23T23:22:12.360Z,6.55
2022-09-23T23:24:40.012Z,6.18
2022-09-23T23:27:07.171Z,6.18
2022-09-23T23:29:34.353Z,6.13
2022-09-23T23:32:01.832Z,6.30
2022-09-23T23:34:28.963Z,6.40
2022-09-23T23:36:56.119Z,6.18
2022-09-23T23:39:25.074Z,5.00
2022-09-23T23:41:55.964Z,5.53
2022-09-23T23:44:25.171Z,5.38
2022-09-23T23:46:53.469Z,4.82
2022-09-23T23:49:21.735Z,5.05
2022-09-23T23:51:49.043Z,4.75
2022-09-23T23:54:16.426Z,4.95
2022-09-23T23:56:43.680Z,5.50
2022-09-23T23:59:11.428Z,4.78
